createdAt,value
2023-05-05T05:03:06.457Z,500.00
2023-05-05T05:04:07.343Z,500.00
2023-05-05T05:05:07.412Z,500.00
2023-05-05T05:06:06.505Z,500.00
2023-05-05T05:07:06.523Z,500.00
2023-05-05T05:08:06.410Z,500.00
2023-05-05T05:09:07.555Z,400.00
2023-05-05T05:10:06.713Z,400.00
2023-05-05T05:11:06.572Z,400.00
2023-05-05T05:12:07.698Z,400.00
2023-05-05T05:13:06.732Z,400.00
2023-05-05T05:14:07.736Z,400.00
2023-05-05T05:15:06.647Z,400.00
2023-05-05T05:16:07.807Z,400.00
2023-05-05T05:17:06.723Z,400.00
2023-05-05T05:18:06.778Z,400.00
2023-05-05T05:19:07.789Z,400.00
2023-05-05T05:20:06.921Z,400.00
2023-05-05T05:21:06.811Z,400.00
2023-05-05T05:22:07.739Z,400.00
2023-05-05T05:23:06.788Z,400.00
2023-05-05T05:24:06.880Z,400.00
2023-05-05T05:25:07.782Z,419.00
2023-05-05T05:26:07.865Z,462.00
2023-05-05T05:27:09.713Z,500.00
2023-05-05T05:28:10.762Z,501.00
2023-05-05T05:29:06.854Z,501.00
2023-05-05T05:30:07.246Z,486.00
2023-05-05T05:31:06.857Z,470.00
2023-05-05T05:32:07.034Z,458.00
2023-05-05T05:33:06.930Z,455.00
2023-05-05T05:34:06.760Z,494.00
2023-05-05T05:35:06.868Z,504.00
2023-05-05T05:36:06.856Z,502.00
2023-05-05T05:37:07.757Z,502.00
2023-05-05T05:38:06.828Z,502.00
2023-05-05T05:39:06.813Z,508.00
2023-05-05T05:40:07.083Z,503.00
2023-05-05T05:41:06.761Z,502.00
2023-05-05T05:42:06.713Z,500.00
2023-05-05T05:43:07.748Z,504.00
2023-05-05T05:44:07.706Z,504.00
2023-05-05T05:45:06.699Z,503.00
2023-05-05T05:46:09.031Z,503.00
2023-05-05T05:47:06.916Z,504.00
2023-05-05T05:48:08.058Z,500.00
2023-05-05T05:49:06.988Z,508.00
2023-05-05T05:50:08.281Z,507.00
2023-05-05T05:51:07.039Z,502.00
2023-05-05T05:52:07.049Z,501.00
2023-05-05T05:53:07.043Z,501.00
2023-05-05T05:54:08.087Z,508.00
2023-05-05T05:55:07.095Z,504.00
2023-05-05T05:56:08.128Z,505.00
2023-05-05T05:57:07.162Z,501.00
2023-05-05T05:58:07.182Z,503.00
2023-05-05T05:59:07.168Z,508.00
2023-05-05T06:00:07.357Z,509.00
2023-05-05T06:01:07.227Z,504.00
2023-05-05T06:02:07.494Z,504.00
2023-05-05T06:03:07.324Z,502.00
2023-05-05T06:04:07.599Z,505.00
2023-05-05T06:05:07.248Z,500.00
2023-05-05T06:06:08.339Z,503.00
2023-05-05T06:07:08.380Z,506.00
2023-05-05T06:08:07.391Z,507.00
2023-05-05T06:09:07.329Z,508.00
2023-05-05T06:10:25.199Z,509.00
2023-05-05T06:11:08.394Z,509.00
2023-05-05T06:12:07.402Z,508.00
2023-05-05T06:13:07.345Z,500.00
2023-05-05T06:14:08.407Z,501.00
2023-05-05T06:15:07.379Z,503.00
2023-05-05T06:16:07.498Z,502.00
2023-05-05T06:17:07.382Z,508.00
2023-05-05T06:18:07.651Z,505.00
2023-05-05T06:19:07.351Z,500.00
2023-05-05T06:20:08.453Z,508.00
2023-05-05T06:21:07.308Z,517.00
2023-05-05T06:22:07.351Z,519.00
2023-05-05T06:23:07.345Z,519.00
2023-05-05T06:24:07.319Z,525.00
2023-05-05T06:25:07.293Z,538.00
2023-05-05T06:26:08.250Z,539.00
2023-05-05T06:27:07.406Z,554.00
2023-05-05T06:28:07.316Z,574.00
2023-05-05T06:29:07.342Z,589.00
2023-05-05T06:30:07.562Z,620.00
2023-05-05T06:31:07.379Z,625.00
2023-05-05T06:32:07.417Z,619.00
2023-05-05T06:33:07.434Z,630.00
2023-05-05T06:34:08.561Z,629.00
2023-05-05T06:35:07.601Z,645.00
2023-05-05T06:36:07.609Z,644.00
2023-05-05T06:37:08.656Z,640.00
2023-05-05T06:38:07.663Z,658.00
2023-05-05T06:39:08.816Z,658.00
2023-05-05T06:40:08.088Z,653.00
2023-05-05T06:41:07.864Z,658.00
2023-05-05T06:42:08.929Z,661.00
2023-05-05T06:43:07.952Z,663.00
2023-05-05T06:44:09.051Z,679.00
2023-05-05T06:45:08.098Z,658.00
2023-05-05T06:46:08.038Z,665.00
2023-05-05T06:47:09.199Z,673.00
2023-05-05T06:48:08.416Z,695.00
2023-05-05T06:49:08.251Z,715.00
2023-05-05T06:50:08.443Z,727.00
2023-05-05T06:51:08.253Z,748.00
2023-05-05T06:52:08.410Z,771.00
2023-05-05T06:53:08.359Z,763.00
2023-05-05T06:54:08.414Z,751.00
2023-05-05T06:55:08.580Z,771.00
2023-05-05T06:56:08.530Z,737.00
2023-05-05T06:57:08.962Z,757.00
2023-05-05T06:58:08.629Z,722.00
2023-05-05T06:59:08.652Z,702.00
2023-05-05T07:00:08.912Z,727.00
2023-05-05T07:01:08.782Z,740.00
2023-05-05T07:02:09.757Z,759.00
2023-05-05T07:03:08.874Z,749.00
2023-05-05T07:04:08.906Z,775.00
2023-05-05T07:05:10.176Z,764.00
2023-05-05T07:06:08.964Z,803.00
2023-05-05T07:07:08.936Z,809.00
2023-05-05T07:08:09.032Z,832.00
2023-05-05T07:09:08.979Z,832.00
2023-05-05T07:10:09.309Z,850.00
2023-05-05T07:11:09.204Z,858.00
2023-05-05T07:12:09.140Z,888.00
2023-05-05T07:13:09.307Z,865.00
2023-05-05T07:14:10.165Z,877.00
2023-05-05T07:15:26.075Z,841.00
2023-05-05T07:16:10.283Z,829.00
2023-05-05T07:17:09.215Z,629.00
2023-05-05T07:18:09.232Z,730.00
2023-05-05T07:19:10.181Z,834.00
2023-05-05T07:20:10.440Z,857.00
2023-05-05T07:21:09.168Z,856.00
2023-05-05T07:22:10.167Z,835.00
2023-05-05T07:23:10.158Z,838.00
2023-05-05T07:24:09.144Z,837.00
2023-05-05T07:25:10.204Z,817.00
2023-05-05T07:26:09.164Z,809.00
2023-05-05T07:27:09.240Z,805.00
2023-05-05T07:28:10.122Z,799.00
2023-05-05T07:29:09.160Z,814.00
2023-05-05T07:30:13.989Z,806.00
2023-05-05T07:31:10.134Z,807.00
2023-05-05T07:32:09.078Z,809.00
2023-05-05T07:33:10.166Z,813.00
2023-05-05T07:34:10.134Z,817.00
2023-05-05T07:35:09.081Z,803.00
2023-05-05T07:36:09.119Z,812.00
2023-05-05T07:37:09.115Z,808.00
2023-05-05T07:38:10.855Z,821.00
2023-05-05T07:39:09.070Z,829.00
2023-05-05T07:40:10.406Z,811.00
2023-05-05T07:41:09.063Z,823.00
2023-05-05T07:42:10.080Z,841.00
2023-05-05T07:43:09.237Z,815.00
2023-05-05T07:44:09.041Z,835.00
2023-05-05T07:45:08.991Z,834.00
2023-05-05T07:46:09.293Z,844.00
2023-05-05T07:47:08.962Z,915.00
2023-05-05T07:48:09.509Z,944.00
2023-05-05T07:49:09.002Z,920.00
2023-05-05T07:50:09.293Z,930.00
2023-05-05T07:51:09.983Z,936.00
2023-05-05T07:52:08.953Z,938.00
2023-05-05T07:53:14.453Z,949.00
2023-05-05T07:54:10.020Z,950.00
2023-05-05T07:55:09.951Z,950.00
2023-05-05T07:56:09.956Z,957.00
2023-05-05T07:57:09.988Z,964.00
2023-05-05T07:58:08.942Z,982.00
2023-05-05T07:59:09.074Z,990.00
2023-05-05T08:00:09.305Z,980.00
2023-05-05T08:01:08.987Z,978.00
2023-05-05T08:02:09.066Z,972.00
2023-05-05T08:03:11.518Z,980.00
2023-05-05T08:04:09.152Z,994.00
2023-05-05T08:05:09.792Z,996.00
2023-05-05T08:06:09.071Z,986.00
2023-05-05T08:07:09.032Z,992.00
2023-05-05T08:08:09.001Z,1002.00
2023-05-05T08:09:09.981Z,996.00
2023-05-05T08:10:09.980Z,1017.00
2023-05-05T08:11:10.015Z,1013.00
2023-05-05T08:12:08.956Z,1023.00
2023-05-05T08:13:10.074Z,1026.00
2023-05-05T08:14:08.963Z,1031.00
2023-05-05T08:15:10.467Z,1049.00
2023-05-05T08:16:09.009Z,1053.00
2023-05-05T08:17:08.957Z,1041.00
2023-05-05T08:18:08.918Z,1040.00
2023-05-05T08:19:21.121Z,1036.00
2023-05-05T08:20:11.015Z,1037.00
2023-05-05T08:21:09.988Z,964.00
2023-05-05T08:22:08.939Z,972.00
2023-05-05T08:23:08.935Z,907.00
2023-05-05T08:24:09.894Z,913.00
2023-05-05T08:25:09.162Z,903.00
2023-05-05T08:26:08.868Z,906.00
2023-05-05T08:27:08.953Z,893.00
2023-05-05T08:28:08.951Z,893.00
2023-05-05T08:29:08.917Z,915.00
2023-05-05T08:30:08.822Z,931.00
2023-05-05T08:31:09.998Z,947.00
2023-05-05T08:32:08.917Z,938.00
2023-05-05T08:33:08.849Z,945.00
2023-05-05T08:34:08.811Z,987.00
2023-05-05T08:35:10.169Z,956.00
2023-05-05T08:36:08.845Z,977.00
2023-05-05T08:37:09.850Z,998.00
2023-05-05T08:38:08.904Z,996.00
2023-05-05T08:39:08.891Z,1014.00
2023-05-05T08:40:08.933Z,1013.00
2023-05-05T08:41:08.897Z,1013.00
2023-05-05T08:42:09.984Z,1025.00
2023-05-05T08:43:09.473Z,1050.00
2023-05-05T08:44:09.022Z,1056.00
2023-05-05T08:45:09.569Z,1054.00
2023-05-05T08:46:09.096Z,1079.00
2023-05-05T08:47:09.400Z,1085.00
2023-05-05T08:48:09.120Z,1057.00
2023-05-05T08:49:10.274Z,1074.00
2023-05-05T08:50:10.166Z,1060.00
2023-05-05T08:51:09.183Z,1085.00
2023-05-05T08:52:09.225Z,1085.00
2023-05-05T08:53:09.225Z,1036.00
2023-05-05T08:54:10.220Z,1062.00
2023-05-05T08:55:10.374Z,1030.00
2023-05-05T08:56:09.288Z,1006.00
2023-05-05T08:57:10.305Z,981.00
2023-05-05T08:58:10.226Z,991.00
2023-05-05T08:59:10.462Z,991.00
2023-05-05T09:00:09.222Z,992.00
2023-05-05T09:01:09.326Z,1017.00
2023-05-05T09:02:09.332Z,1018.00
2023-05-05T09:03:09.444Z,1041.00
2023-05-05T09:04:09.302Z,1041.00
2023-05-05T09:05:09.578Z,1062.00
2023-05-05T09:06:10.305Z,1065.00
2023-05-05T09:07:09.261Z,1088.00
2023-05-05T09:08:10.350Z,1094.00
2023-05-05T09:09:09.427Z,1104.00
2023-05-05T09:10:09.420Z,1102.00
2023-05-05T09:11:10.352Z,1135.00
2023-05-05T09:12:09.366Z,1140.00
2023-05-05T09:13:09.545Z,1118.00
2023-05-05T09:14:09.404Z,1133.00
2023-05-05T09:15:10.660Z,1153.00
2023-05-05T09:16:09.478Z,1156.00
2023-05-05T09:17:09.546Z,1169.00
2023-05-05T09:18:10.498Z,1185.00
2023-05-05T09:19:09.631Z,1177.00
2023-05-05T09:20:09.504Z,1195.00
2023-05-05T09:21:10.480Z,1192.00
2023-05-05T09:22:10.500Z,1211.00
2023-05-05T09:23:10.583Z,1222.00
2023-05-05T09:24:09.859Z,1210.00
2023-05-05T09:25:09.811Z,1226.00
2023-05-05T09:26:10.618Z,1295.00
2023-05-05T09:27:09.599Z,1300.00
2023-05-05T09:28:09.672Z,1292.00
2023-05-05T09:29:09.690Z,1299.00
2023-05-05T09:30:09.709Z,1300.00
2023-05-05T09:31:09.680Z,1289.00
2023-05-05T09:32:10.717Z,1277.00
2023-05-05T09:33:09.767Z,1293.00
2023-05-05T09:34:09.750Z,1309.00
2023-05-05T09:35:09.906Z,1294.00
2023-05-05T09:36:09.689Z,1302.00
2023-05-05T09:37:10.774Z,1322.00
2023-05-05T09:38:09.794Z,1327.00
2023-05-05T09:39:09.786Z,1341.00
2023-05-05T09:40:09.934Z,1346.00
2023-05-05T09:41:09.786Z,1335.00
2023-05-05T09:42:09.763Z,1368.00
2023-05-05T09:43:09.732Z,1358.00
2023-05-05T09:44:10.830Z,1361.00
2023-05-05T09:45:09.990Z,1380.00
2023-05-05T09:46:10.837Z,1382.00
2023-05-05T09:47:25.981Z,1389.00
2023-05-05T09:48:10.816Z,1390.00
2023-05-05T09:49:09.941Z,1393.00
2023-05-05T09:50:10.744Z,1399.00
2023-05-05T09:51:10.925Z,1400.00
2023-05-05T09:52:09.707Z,1402.00
2023-05-05T09:53:09.695Z,1412.00
2023-05-05T09:54:10.931Z,1423.00
2023-05-05T09:55:09.750Z,1421.00
2023-05-05T09:56:09.740Z,1432.00
2023-05-05T09:57:09.687Z,1426.00
2023-05-05T09:58:10.763Z,1427.00
2023-05-05T09:59:09.681Z,1448.00
2023-05-05T10:00:10.862Z,1434.00
2023-05-05T10:01:10.774Z,1438.00
2023-05-05T10:02:09.745Z,1420.00
2023-05-05T10:03:09.714Z,1443.00
2023-05-05T10:04:09.689Z,1436.00
2023-05-05T10:05:09.924Z,1462.00
2023-05-05T10:06:10.663Z,1448.00
2023-05-05T10:07:09.724Z,1450.00
2023-05-05T10:08:09.608Z,1488.00
2023-05-05T10:09:10.604Z,1505.00
2023-05-05T10:10:10.839Z,1502.00
2023-05-05T10:11:09.631Z,1499.00
2023-05-05T10:12:10.717Z,1491.00
2023-05-05T10:13:09.671Z,1495.00
2023-05-05T10:14:09.689Z,1495.00
2023-05-05T10:15:09.590Z,1490.00
2023-05-05T10:16:10.597Z,1499.00
2023-05-05T10:17:09.571Z,1491.00
2023-05-05T10:18:09.616Z,1498.00
2023-05-05T10:19:09.606Z,1485.00
2023-05-05T10:20:10.672Z,1477.00
2023-05-05T10:21:09.510Z,1494.00
2023-05-05T10:22:09.566Z,1489.00
2023-05-05T10:23:09.527Z,1486.00
2023-05-05T10:24:10.557Z,1496.00
2023-05-05T10:25:09.495Z,1494.00
2023-05-05T10:26:10.516Z,1504.00
2023-05-05T10:27:11.568Z,1491.00
2023-05-05T10:28:10.505Z,1492.00
2023-05-05T10:29:10.500Z,1505.00
2023-05-05T10:30:10.811Z,1496.00
2023-05-05T10:31:24.532Z,1502.00
2023-05-05T10:32:33.469Z,1503.00
2023-05-05T10:33:30.174Z,1504.00
2023-05-05T10:34:10.668Z,1505.00
2023-05-05T10:35:10.493Z,1511.00
2023-05-05T10:36:09.494Z,1516.00
2023-05-05T10:37:09.454Z,1519.00
2023-05-05T10:38:09.461Z,1520.00
2023-05-05T10:39:09.602Z,1512.00
2023-05-05T10:40:09.748Z,1521.00
2023-05-05T10:41:10.388Z,1516.00
2023-05-05T10:42:10.378Z,1518.00
2023-05-05T10:43:10.590Z,1509.00
2023-05-05T10:44:09.536Z,1500.00
2023-05-05T10:45:09.505Z,1497.00
2023-05-05T10:46:09.451Z,1499.00
2023-05-05T10:47:09.417Z,1510.00
2023-05-05T10:48:09.410Z,1514.00
2023-05-05T10:49:12.919Z,1515.00
2023-05-05T10:50:09.490Z,1516.00
2023-05-05T10:51:09.331Z,1519.00
2023-05-05T10:52:09.306Z,1518.00
2023-05-05T10:53:09.306Z,1516.00
2023-05-05T10:54:10.407Z,1503.00
2023-05-05T10:55:09.370Z,1525.00
2023-05-05T10:56:09.298Z,1514.00
2023-05-05T10:57:10.444Z,1899.00
2023-05-05T10:58:09.335Z,1779.00
2023-05-05T10:59:10.334Z,1832.00
2023-05-05T11:00:09.561Z,1778.00
2023-05-05T11:01:09.333Z,1714.00
2023-05-05T11:02:09.290Z,1664.00
2023-05-05T11:03:09.317Z,1640.00
2023-05-05T11:04:10.356Z,1635.00
2023-05-05T11:05:10.309Z,1612.00
2023-05-05T11:06:09.274Z,1592.00
2023-05-05T11:07:13.755Z,1583.00
2023-05-05T11:08:09.243Z,1584.00
2023-05-05T11:09:09.251Z,1578.00
2023-05-05T11:10:09.585Z,1580.00
2023-05-05T11:11:09.335Z,1579.00
2023-05-05T11:12:09.256Z,1571.00
2023-05-05T11:13:10.256Z,1558.00
2023-05-05T11:14:09.166Z,1570.00
2023-05-05T11:15:10.165Z,1548.00
2023-05-05T11:16:09.210Z,1554.00
2023-05-05T11:17:09.271Z,1555.00
2023-05-05T11:18:10.228Z,1548.00
2023-05-05T11:19:10.270Z,1554.00
2023-05-05T11:20:09.392Z,1546.00
2023-05-05T11:21:10.236Z,1537.00
2023-05-05T11:22:09.292Z,1552.00
2023-05-05T11:23:09.316Z,1526.00
2023-05-05T11:24:10.336Z,1526.00
2023-05-05T11:25:09.324Z,1527.00
2023-05-05T11:26:09.309Z,1520.00
2023-05-05T11:27:10.372Z,1501.00
2023-05-05T11:28:10.522Z,1536.00
2023-05-05T11:29:10.363Z,1519.00
2023-05-05T11:30:09.736Z,1524.00
2023-05-05T11:31:09.380Z,1511.00
2023-05-05T11:32:10.424Z,1519.00
2023-05-05T11:33:09.547Z,1494.00
2023-05-05T11:34:10.469Z,1500.00
2023-05-05T11:35:09.497Z,1499.00
2023-05-05T11:36:10.449Z,1496.00
2023-05-05T11:37:10.457Z,1479.00
2023-05-05T11:38:10.615Z,1485.00
2023-05-05T11:39:09.544Z,1477.00
2023-05-05T11:40:10.253Z,1467.00
2023-05-05T11:41:10.628Z,1464.00
2023-05-05T11:42:11.016Z,1457.00
2023-05-05T11:43:10.607Z,1467.00
2023-05-05T11:44:10.590Z,1465.00
2023-05-05T11:45:09.708Z,1448.00
2023-05-05T11:46:09.705Z,1453.00
2023-05-05T11:47:10.673Z,1463.00
2023-05-05T11:48:10.744Z,1450.00
2023-05-05T11:49:10.624Z,1461.00
2023-05-05T11:50:09.843Z,1450.00
2023-05-05T11:51:09.719Z,1444.00
2023-05-05T11:52:09.785Z,1451.00
2023-05-05T11:53:10.803Z,1444.00
2023-05-05T11:54:10.820Z,1456.00
2023-05-05T11:55:09.823Z,1455.00
2023-05-05T11:56:09.873Z,1449.00
2023-05-05T11:57:09.830Z,1452.00
2023-05-05T11:58:09.875Z,1457.00
2023-05-05T11:59:10.048Z,1448.00
2023-05-05T12:00:10.311Z,1446.00
2023-05-05T12:01:10.993Z,1452.00
2023-05-05T12:02:10.015Z,1443.00
2023-05-05T12:03:10.065Z,1442.00
2023-05-05T12:04:10.248Z,1435.00
2023-05-05T12:05:11.143Z,1427.00
2023-05-05T12:06:10.049Z,1433.00
2023-05-05T12:07:11.070Z,1424.00
2023-05-05T12:08:10.176Z,1428.00
2023-05-05T12:09:10.188Z,1423.00
2023-05-05T12:10:10.456Z,1423.00
2023-05-05T12:11:10.283Z,1418.00
2023-05-05T12:12:10.277Z,1411.00
2023-05-05T12:13:11.457Z,1409.00
2023-05-05T12:14:10.426Z,1397.00
2023-05-05T12:15:10.524Z,1405.00
2023-05-05T12:16:11.526Z,1405.00
2023-05-05T12:17:10.593Z,1394.00
2023-05-05T12:18:11.622Z,1385.00
2023-05-05T12:19:10.733Z,1384.00
2023-05-05T12:20:11.275Z,1388.00
2023-05-05T12:21:10.818Z,1385.00
2023-05-05T12:22:10.884Z,1377.00
2023-05-05T12:23:11.889Z,1381.00
2023-05-05T12:24:11.956Z,1362.00
2023-05-05T12:25:11.054Z,1362.00
2023-05-05T12:26:11.006Z,1364.00
2023-05-05T12:27:11.080Z,1356.00
2023-05-05T12:28:12.183Z,1340.00
2023-05-05T12:29:11.236Z,1338.00
2023-05-05T12:30:11.338Z,1326.00
2023-05-05T12:31:11.552Z,1323.00
2023-05-05T12:32:11.406Z,1324.00
2023-05-05T12:33:12.373Z,1320.00
2023-05-05T12:34:12.438Z,1311.00
2023-05-05T12:35:11.588Z,1320.00
2023-05-05T12:36:11.611Z,1316.00
2023-05-05T12:37:12.642Z,1315.00
2023-05-05T12:38:11.680Z,1331.00
2023-05-05T12:39:11.714Z,1310.00
2023-05-05T12:40:12.781Z,1318.00
2023-05-05T12:41:11.871Z,1305.00
2023-05-05T12:42:12.952Z,1300.00
2023-05-05T12:43:12.005Z,1316.00
2023-05-05T12:44:12.054Z,1311.00
2023-05-05T12:45:13.175Z,1312.00
2023-05-05T12:46:13.167Z,1324.00
2023-05-05T12:47:12.262Z,1303.00
2023-05-05T12:48:12.250Z,1293.00
2023-05-05T12:49:12.422Z,1297.00
2023-05-05T12:50:13.425Z,1300.00
2023-05-05T12:51:13.434Z,1291.00
2023-05-05T12:52:12.451Z,1302.00
2023-05-05T12:53:12.589Z,1301.00
2023-05-05T12:54:12.556Z,1313.00
2023-05-05T12:55:12.635Z,1297.00
2023-05-05T12:56:12.761Z,1300.00
2023-05-05T12:57:12.838Z,1306.00
2023-05-05T12:58:12.836Z,1295.00
2023-05-05T12:59:12.894Z,1294.00
2023-05-05T13:00:12.893Z,1301.00
2023-05-05T13:01:12.985Z,1287.00
2023-05-05T13:02:13.009Z,1288.00
2023-05-05T13:03:13.207Z,1284.00
2023-05-05T13:04:13.117Z,1286.00
2023-05-05T13:05:13.261Z,1284.00
2023-05-05T13:06:13.364Z,1281.00
2023-05-05T13:07:13.387Z,1287.00
2023-05-05T13:08:13.406Z,1279.00
2023-05-05T13:09:14.500Z,1283.00
2023-05-05T13:10:14.562Z,1288.00
2023-05-05T13:11:13.539Z,1286.00
2023-05-05T13:12:14.688Z,1293.00
2023-05-05T13:13:13.808Z,1280.00
2023-05-05T13:14:14.750Z,1280.00
2023-05-05T13:15:14.901Z,1273.00
2023-05-05T13:16:14.012Z,1277.00
2023-05-05T13:17:15.038Z,1271.00
2023-05-05T13:18:15.076Z,1272.00
2023-05-05T13:19:14.289Z,1270.00
2023-05-05T13:20:15.079Z,1254.00
2023-05-05T13:21:14.310Z,1269.00
2023-05-05T13:22:15.264Z,1253.00
2023-05-05T13:23:14.364Z,1259.00
2023-05-05T13:24:26.087Z,1249.00
2023-05-05T13:25:15.407Z,1250.00
2023-05-05T13:26:14.380Z,1252.00
2023-05-05T13:27:15.397Z,1258.00
2023-05-05T13:28:14.421Z,1256.00
2023-05-05T13:29:15.412Z,1270.00
2023-05-05T13:30:15.313Z,1264.00
2023-05-05T13:31:14.432Z,1260.00
2023-05-05T13:32:14.427Z,1256.00
2023-05-05T13:33:14.341Z,1258.00
2023-05-05T13:34:15.436Z,1258.00
2023-05-05T13:35:16.417Z,1246.00
2023-05-05T13:36:14.546Z,1258.00
2023-05-05T13:37:14.531Z,1251.00
2023-05-05T13:38:15.658Z,1259.00
2023-05-05T13:39:15.754Z,1248.00
2023-05-05T13:40:14.677Z,1245.00
2023-05-05T13:41:15.889Z,1244.00
2023-05-05T13:42:15.815Z,1254.00
2023-05-05T13:43:15.960Z,1247.00
2023-05-05T13:44:15.985Z,1246.00
2023-05-05T13:45:15.081Z,1239.00
2023-05-05T13:46:20.133Z,1231.00
2023-05-05T13:47:15.161Z,1232.00
2023-05-05T13:48:16.142Z,1232.00
2023-05-05T13:49:15.099Z,1236.00
2023-05-05T13:50:15.240Z,1241.00
2023-05-05T13:51:15.384Z,1237.00
2023-05-05T13:52:15.291Z,1235.00
2023-05-05T13:53:16.322Z,1241.00
2023-05-05T13:54:16.396Z,1246.00
2023-05-05T13:55:16.516Z,1245.00
2023-05-05T13:56:15.549Z,1221.00
2023-05-05T13:57:15.637Z,1234.00
2023-05-05T13:58:15.673Z,1224.00
2023-05-05T13:59:15.805Z,1229.00
2023-05-05T14:00:16.838Z,1226.00
2023-05-05T14:01:17.059Z,1234.00
2023-05-05T14:02:15.986Z,1236.00
2023-05-05T14:03:16.019Z,1215.00
2023-05-05T14:04:16.127Z,1232.00
2023-05-05T14:05:16.088Z,1223.00
2023-05-05T14:06:16.236Z,1223.00
2023-05-05T14:07:16.415Z,1224.00
2023-05-05T14:08:16.288Z,1222.00
2023-05-05T14:09:16.329Z,1216.00
2023-05-05T14:10:16.434Z,1212.00
2023-05-05T14:11:17.531Z,1215.00
2023-05-05T14:12:16.529Z,1209.00
2023-05-05T14:13:17.749Z,1200.00
2023-05-05T14:14:17.646Z,1206.00
2023-05-05T14:15:17.769Z,1207.00
2023-05-05T14:16:16.829Z,1202.00
2023-05-05T14:17:16.862Z,1188.00
2023-05-05T14:18:17.928Z,1200.00
2023-05-05T14:19:16.966Z,1196.00
2023-05-05T14:20:17.062Z,1202.00
2023-05-05T14:21:18.061Z,1201.00
2023-05-05T14:22:17.160Z,1206.00
2023-05-05T14:23:18.324Z,1190.00
2023-05-05T14:24:17.268Z,1194.00
2023-05-05T14:25:17.365Z,1185.00
2023-05-05T14:26:17.406Z,1179.00
2023-05-05T14:27:18.455Z,1192.00
2023-05-05T14:28:18.531Z,1187.00
2023-05-05T14:29:17.581Z,1188.00
2023-05-05T14:30:18.678Z,1182.00
2023-05-05T14:31:17.806Z,1180.00
2023-05-05T14:32:17.961Z,1179.00
2023-05-05T14:33:17.772Z,1174.00
2023-05-05T14:34:17.894Z,1160.00
2023-05-05T14:35:17.873Z,1144.00
2023-05-05T14:36:19.020Z,1164.00
2023-05-05T14:37:19.019Z,1166.00
2023-05-05T14:38:18.064Z,1152.00
2023-05-05T14:39:19.182Z,1161.00
2023-05-05T14:40:18.203Z,1164.00
2023-05-05T14:41:19.200Z,1168.00
2023-05-05T14:42:18.301Z,1169.00
2023-05-05T14:43:18.396Z,1152.00
2023-05-05T14:44:18.416Z,1155.00
2023-05-05T14:45:18.485Z,1156.00
2023-05-05T14:46:18.591Z,1152.00
2023-05-05T14:47:18.553Z,1150.00
2023-05-05T14:48:18.572Z,1145.00
2023-05-05T14:49:18.630Z,1148.00
2023-05-05T14:50:18.784Z,1137.00
2023-05-05T14:51:19.875Z,1145.00
2023-05-05T14:52:18.809Z,1150.00
2023-05-05T14:53:19.901Z,1133.00
2023-05-05T14:54:27.791Z,1130.00
2023-05-05T14:55:20.014Z,1131.00
2023-05-05T14:56:19.885Z,1132.00
2023-05-05T14:57:18.951Z,1128.00
2023-05-05T14:58:18.862Z,1136.00
2023-05-05T14:59:18.950Z,1133.00
2023-05-05T15:00:18.955Z,1132.00
2023-05-05T15:01:18.901Z,1121.00
2023-05-05T15:02:19.945Z,1131.00
2023-05-05T15:03:18.914Z,1133.00
2023-05-05T15:04:19.837Z,1126.00
2023-05-05T15:05:18.896Z,1113.00
2023-05-05T15:06:18.938Z,1118.00
2023-05-05T15:07:18.884Z,1116.00
2023-05-05T15:08:18.866Z,1117.00
2023-05-05T15:09:19.881Z,1103.00
2023-05-05T15:10:21.746Z,1114.00
2023-05-05T15:11:19.013Z,1113.00
2023-05-05T15:12:18.948Z,1095.00
2023-05-05T15:13:19.217Z,1110.00
2023-05-05T15:14:18.957Z,1113.00
2023-05-05T15:15:19.899Z,1094.00
2023-05-05T15:16:19.005Z,1102.00
2023-05-05T15:17:18.963Z,1097.00
2023-05-05T15:18:18.926Z,1099.00
2023-05-05T15:19:19.850Z,1098.00
2023-05-05T15:20:19.902Z,1105.00
2023-05-05T15:21:18.867Z,1086.00
2023-05-05T15:22:18.931Z,1107.00
2023-05-05T15:23:18.928Z,1108.00
2023-05-05T15:24:18.824Z,1102.00
2023-05-05T15:25:19.811Z,1103.00
2023-05-05T15:26:19.846Z,1107.00
2023-05-05T15:27:19.095Z,1095.00
2023-05-05T15:28:18.888Z,1099.00
2023-05-05T15:29:18.864Z,1111.00
